Time;durP1;ratioP1;P1;durP2;ratioP2;P2;SDS_P1;SDS_P2;PMS_P1;PMS_P2;Temp;Humidity;BMP_temperature;BMP_pressure;BME280_temperature;BME280_humidity;BME280_pressure;Samples;Min_cycle;Max_cycle;Signal;HPM_P1;HPM_P2
2023/06/25 00:02:12;;;;;;;4.03;3.63;;;22.40;63.10;;;;;;5001239;28;20030;-67
2023/06/25 00:04:38;;;;;;;4.45;3.80;;;22.40;63.10;;;;;;5002957;28;20038;-66
2023/06/25 00:07:03;;;;;;;3.97;3.58;;;22.50;63.10;;;;;;5005291;28;20086;-67
2023/06/25 00:09:29;;;;;;;3.67;3.30;;;22.40;63.10;;;;;;5005072;28;20050;-66
2023/06/25 00:11:54;;;;;;;4.72;3.78;;;22.40;63.10;;;;;;5002273;28;20026;-66
2023/06/25 00:14:20;;;;;;;4.07;3.35;;;22.40;63.10;;;;;;5005389;28;20018;-67
2023/06/25 00:16:45;;;;;;;4.20;3.55;;;22.40;63.10;;;;;;5002812;28;20378;-67
2023/06/25 00:19:11;;;;;;;3.88;3.58;;;22.40;63.10;;;;;;5004833;28;20029;-66
2023/06/25 00:21:37;;;;;;;5.68;4.05;;;22.40;63.10;;;;;;5006036;28;20041;-66
2023/06/25 00:24:03;;;;;;;3.78;3.47;;;22.40;63.10;;;;;;5005276;28;20032;-65
2023/06/25 00:26:30;;;;;;;4.05;3.50;;;22.40;63.10;;;;;;5009408;28;20034;-65
2023/06/25 00:28:55;;;;;;;4.35;3.63;;;22.40;63.10;;;;;;5009925;28;20046;-67
2023/06/25 00:31:21;;;;;;;3.80;3.50;;;22.40;63.10;;;;;;5009177;28;20240;-66
2023/06/25 00:33:49;;;;;;;4.82;3.75;;;22.40;63.10;;;;;;5003341;28;20037;-67
2023/06/25 00:36:15;;;;;;;4.88;3.10;;;22.40;63.10;;;;;;5003388;28;20049;-66
2023/06/25 00:38:42;;;;;;;3.90;3.60;;;22.40;63.10;;;;;;5003707;28;20111;-66
2023/06/25 00:41:09;;;;;;;3.50;3.20;;;22.40;63.10;;;;;;5003811;28;20532;-66
2023/06/25 00:43:37;;;;;;;5.80;4.22;;;22.40;63.00;;;;;;5005179;28;20037;-65
2023/06/25 00:46:02;;;;;;;3.38;3.03;;;22.40;63.10;;;;;;5003230;28;20030;-67
2023/06/25 00:48:28;;;;;;;4.03;3.70;;;22.40;63.00;;;;;;5004697;28;20037;-65
2023/06/25 00:51:00;;;;;;;4.60;3.50;;;22.40;63.00;;;;;;5002515;28;20037;-66
2023/06/25 00:53:29;;;;;;;4.47;3.40;;;22.40;63.10;;;;;;4998870;28;20430;-66
2023/06/25 00:55:55;;;;;;;4.10;3.70;;;22.40;63.10;;;;;;5003375;28;20043;-66
2023/06/25 00:58:20;;;;;;;4.60;3.80;;;22.40;63.40;;;;;;5004253;28;20038;-66
2023/06/25 01:00:47;;;;;;;5.07;3.78;;;22.40;63.00;;;;;;5001648;28;20303;-67
2023/06/25 01:03:26;;;;;;;3.70;3.40;;;22.40;63.00;;;;;;4999753;28;20096;-67
2023/06/25 01:06:09;;;;;;;3.80;3.50;;;22.40;63.00;;;;;;5001805;28;20156;-65
2023/06/25 01:08:38;;;;;;;5.47;3.72;;;22.40;63.10;;;;;;5001981;28;20034;-66
2023/06/25 01:11:05;;;;;;;4.30;3.70;;;22.40;63.00;;;;;;5003297;28;20038;-63
2023/06/25 01:13:30;;;;;;;6.60;3.65;;;22.40;63.10;;;;;;5004237;28;20400;-65
2023/06/25 01:15:56;;;;;;;3.92;3.53;;;22.40;63.00;;;;;;5001762;28;20026;-66
2023/06/25 01:18:23;;;;;;;4.38;3.97;;;22.40;63.00;;;;;;5003626;28;20042;-66
2023/06/25 01:20:51;;;;;;;4.30;3.90;;;22.40;63.10;;;;;;5003061;28;20030;-66
2023/06/25 01:23:17;;;;;;;4.65;4.18;;;22.40;63.10;;;;;;4999395;28;20110;-66
2023/06/25 01:25:47;;;;;;;4.05;3.65;;;22.30;63.00;;;;;;5002215;28;20169;-66
2023/06/25 01:28:13;;;;;;;5.30;4.03;;;22.40;63.00;;;;;;5003277;28;20057;-67
2023/06/25 01:30:38;;;;;;;4.22;3.83;;;22.40;63.10;;;;;;5002255;28;20516;-67
2023/06/25 01:33:04;;;;;;;4.53;4.13;;;22.40;63.00;;;;;;5001556;28;20042;-66
2023/06/25 01:35:29;;;;;;;4.70;3.85;;;22.30;63.00;;;;;;5001588;28;20108;-66
2023/06/25 01:37:56;;;;;;;4.25;3.50;;;22.40;63.00;;;;;;5000560;28;20030;-67
2023/06/25 01:40:22;;;;;;;3.70;3.40;;;22.40;63.10;;;;;;5004322;28;20441;-66
2023/06/25 01:42:47;;;;;;;5.80;4.15;;;22.40;63.10;;;;;;4999254;28;20191;-66
2023/06/25 01:45:13;;;;;;;5.90;4.05;;;22.30;63.00;;;;;;5001608;28;20022;-66
2023/06/25 01:47:39;;;;;;;3.88;3.47;;;22.40;63.10;;;;;;5000637;28;20148;-65
2023/06/25 01:50:05;;;;;;;5.18;4.50;;;22.30;63.00;;;;;;5002859;28;20053;-67
2023/06/25 01:52:32;;;;;;;4.47;4.13;;;22.30;63.00;;;;;;5002293;28;20132;-66
2023/06/25 01:54:58;;;;;;;5.68;4.63;;;22.30;63.00;;;;;;5000171;28;20068;-67
2023/06/25 01:57:23;;;;;;;7.25;4.25;;;22.30;63.00;;;;;;4997790;28;20424;-66
2023/06/25 01:59:49;;;;;;;4.25;3.85;;;22.30;63.00;;;;;;4999682;28;20041;-63
2023/06/25 02:02:14;;;;;;;4.30;3.90;;;22.30;63.00;;;;;;5001889;28;20236;-65
2023/06/25 02:04:39;;;;;;;6.05;4.63;;;22.30;63.00;;;;;;5003010;28;20042;-66
2023/06/25 02:07:05;;;;;;;4.63;4.13;;;22.30;63.00;;;;;;5002613;28;20061;-67
2023/06/25 02:09:31;;;;;;;4.90;4.32;;;22.30;63.00;;;;;;5003335;28;20041;-65
2023/06/25 02:11:56;;;;;;;6.03;4.80;;;22.30;63.00;;;;;;4999932;28;20034;-66
2023/06/25 02:14:22;;;;;;;4.95;4.55;;;22.30;63.00;;;;;;5004519;28;20034;-65
2023/06/25 02:16:48;;;;;;;4.47;3.92;;;22.30;63.00;;;;;;4999706;28;20025;-65
2023/06/25 02:19:13;;;;;;;5.15;3.95;;;22.30;63.00;;;;;;5004097;28;20027;-64
2023/06/25 02:21:39;;;;;;;5.60;5.10;;;22.30;63.00;;;;;;5008504;28;20045;-67
2023/06/25 02:24:04;;;;;;;4.55;4.15;;;22.30;63.00;;;;;;5006341;28;20038;-66
2023/06/25 02:26:30;;;;;;;5.07;4.20;;;22.30;63.00;;;;;;5004838;28;20033;-65
2023/06/25 02:28:55;;;;;;;4.43;3.92;;;22.20;63.20;;;;;;5007412;28;20435;-65
2023/06/25 02:31:21;;;;;;;5.78;4.15;;;22.20;63.20;;;;;;5005768;28;20038;-67
2023/06/25 02:33:47;;;;;;;5.53;4.55;;;22.20;63.10;;;;;;5002683;28;20219;-63
2023/06/25 02:36:12;;;;;;;7.82;3.88;;;22.10;63.20;;;;;;5005008;28;20034;-64
2023/06/25 02:38:38;;;;;;;6.45;4.63;;;22.10;62.90;;;;;;5006960;28;20034;-65
2023/06/25 02:41:03;;;;;;;6.72;4.88;;;22.10;63.00;;;;;;5006147;28;20037;-66
2023/06/25 02:43:29;;;;;;;6.35;4.40;;;22.10;62.70;;;;;;5006563;28;20374;-66
2023/06/25 02:45:54;;;;;;;6.57;4.38;;;22.00;62.30;;;;;;5006136;28;20171;-66
2023/06/25 02:48:20;;;;;;;5.28;4.25;;;22.00;62.60;;;;;;5006219;28;20049;-66
2023/06/25 02:50:45;;;;;;;5.47;4.47;;;22.00;62.20;;;;;;5006179;28;20610;-66
2023/06/25 02:53:12;;;;;;;5.63;4.60;;;22.00;62.50;;;;;;4998042;28;20037;-67
2023/06/25 02:55:37;;;;;;;5.93;4.82;;;22.00;62.30;;;;;;5000223;28;20444;-65
2023/06/25 02:58:03;;;;;;;5.88;4.68;;;22.00;62.30;;;;;;5003224;28;20041;-66
2023/06/25 03:00:28;;;;;;;5.97;4.53;;;22.00;62.20;;;;;;5005821;28;20124;-66
2023/06/25 03:02:54;;;;;;;6.05;4.72;;;22.00;62.20;;;;;;5007602;28;20034;-66
2023/06/25 03:05:19;;;;;;;4.90;4.40;;;21.90;62.20;;;;;;5007317;28;20060;-65
2023/06/25 03:07:53;;;;;;;6.40;4.65;;;21.90;62.30;;;;;;5003614;28;20512;-65
2023/06/25 03:10:18;;;;;;;5.78;4.35;;;21.90;62.00;;;;;;5005741;28;20112;-65
2023/06/25 03:12:44;;;;;;;5.20;4.32;;;21.90;62.20;;;;;;5005879;28;20449;-66
2023/06/25 03:15:10;;;;;;;6.32;4.68;;;21.90;62.10;;;;;;5001507;28;20034;-66
2023/06/25 03:17:35;;;;;;;4.68;4.28;;;21.90;62.20;;;;;;5006371;28;20057;-66
2023/06/25 03:20:01;;;;;;;5.68;4.38;;;21.90;62.00;;;;;;5002667;28;20618;-66
2023/06/25 03:22:26;;;;;;;5.10;4.40;;;21.90;62.10;;;;;;5003676;28;20489;-66
2023/06/25 03:24:51;;;;;;;4.93;4.32;;;21.90;62.10;;;;;;5005832;28;20084;-64
2023/06/25 03:27:17;;;;;;;6.30;4.43;;;21.90;62.10;;;;;;5006244;28;20034;-65
2023/06/25 03:29:42;;;;;;;6.03;4.60;;;21.90;62.10;;;;;;5005094;28;20141;-64
2023/06/25 03:32:08;;;;;;;6.22;4.20;;;21.90;62.10;;;;;;4999986;28;20041;-66
2023/06/25 03:34:33;;;;;;;6.35;4.55;;;21.90;62.10;;;;;;5006136;28;20088;-64
2023/06/25 03:36:59;;;;;;;4.72;3.63;;;21.90;62.00;;;;;;5001512;28;20531;-65
2023/06/25 03:39:24;;;;;;;4.82;4.32;;;21.90;62.00;;;;;;5003115;28;20026;-64
2023/06/25 03:41:50;;;;;;;6.80;3.85;;;21.90;61.90;;;;;;5003243;28;20046;-65
2023/06/25 03:44:15;;;;;;;5.85;3.80;;;21.90;61.80;;;;;;5001514;28;20038;-60
2023/06/25 03:46:41;;;;;;;4.80;3.85;;;21.90;61.90;;;;;;5004962;28;20184;-61
2023/06/25 03:49:07;;;;;;;4.45;4.00;;;21.90;61.80;;;;;;5002316;28;20503;-62
2023/06/25 03:51:32;;;;;;;6.22;4.57;;;21.90;61.90;;;;;;5002880;28;20058;-64
2023/06/25 03:53:57;;;;;;;4.78;4.28;;;21.90;61.90;;;;;;5000958;28;20034;-65
2023/06/25 03:56:23;;;;;;;5.18;4.45;;;21.90;61.90;;;;;;5003805;28;20541;-61
2023/06/25 03:58:48;;;;;;;8.52;5.00;;;21.90;62.00;;;;;;5004925;28;20342;-66
2023/06/25 04:01:14;;;;;;;6.18;4.20;;;21.90;62.10;;;;;;5004822;28;20817;-65
2023/06/25 04:03:39;;;;;;;5.00;4.32;;;21.90;62.10;;;;;;5004887;28;20598;-65
2023/06/25 04:06:05;;;;;;;5.50;3.80;;;21.80;62.00;;;;;;5003480;28;20394;-65
2023/06/25 04:08:30;;;;;;;4.53;4.07;;;21.90;62.30;;;;;;5004056;28;20030;-66
2023/06/25 04:10:56;;;;;;;4.50;4.10;;;21.80;62.30;;;;;;5001760;28;20523;-65
2023/06/25 04:13:21;;;;;;;3.97;3.58;;;21.80;62.20;;;;;;5001926;28;20022;-64
2023/06/25 04:15:47;;;;;;;6.70;4.38;;;21.80;62.20;;;;;;5002899;28;20484;-66
2023/06/25 04:18:12;;;;;;;5.15;4.07;;;21.80;62.30;;;;;;5003237;28;20337;-66
2023/06/25 04:20:38;;;;;;;5.38;4.30;;;21.80;62.40;;;;;;5002446;28;20037;-66
2023/06/25 04:23:03;;;;;;;5.68;4.82;;;21.80;62.60;;;;;;5002698;28;20041;-66
2023/06/25 04:25:30;;;;;;;7.10;4.40;;;21.80;62.80;;;;;;5003538;28;20105;-65
2023/06/25 04:27:56;;;;;;;5.25;4.63;;;21.80;62.80;;;;;;5005732;28;20036;-64
2023/06/25 04:30:21;;;;;;;5.35;4.07;;;21.80;62.80;;;;;;5004103;28;20038;-65
2023/06/25 04:32:50;;;;;;;6.68;4.65;;;21.80;62.90;;;;;;5003878;28;20093;-65
2023/06/25 04:35:16;;;;;;;4.15;3.75;;;21.80;63.00;;;;;;5003852;28;20038;-65
2023/06/25 04:37:42;;;;;;;4.68;3.90;;;21.80;63.10;;;;;;4997590;28;20034;-65
2023/06/25 04:40:08;;;;;;;5.95;4.05;;;21.80;63.20;;;;;;5001140;28;20030;-65
2023/06/25 04:42:33;;;;;;;5.43;3.92;;;21.90;63.20;;;;;;5004791;28;20030;-65
2023/06/25 04:44:59;;;;;;;5.32;3.88;;;21.90;63.20;;;;;;5005313;28;20041;-65
2023/06/25 04:47:24;;;;;;;6.40;4.30;;;21.90;63.20;;;;;;5001205;28;20026;-65
2023/06/25 04:49:50;;;;;;;5.47;4.95;;;21.90;63.30;;;;;;5009318;28;20057;-65
2023/06/25 04:52:18;;;;;;;5.20;4.35;;;21.90;63.40;;;;;;5005325;28;20037;-66
2023/06/25 04:54:45;;;;;;;6.75;4.53;;;21.90;63.50;;;;;;5004159;28;20022;-66
2023/06/25 04:57:10;;;;;;;4.57;4.13;;;21.90;63.50;;;;;;5005531;28;20109;-66
2023/06/25 04:59:36;;;;;;;4.57;3.17;;;21.90;63.60;;;;;;5005371;28;20560;-66
2023/06/25 05:02:01;;;;;;;4.50;3.90;;;22.00;63.60;;;;;;5000219;28;20030;-65
2023/06/25 05:04:27;;;;;;;4.50;4.05;;;22.00;63.70;;;;;;4999863;28;20053;-65
2023/06/25 05:06:52;;;;;;;4.28;3.88;;;22.00;63.80;;;;;;5002614;28;20037;-66
2023/06/25 05:09:18;;;;;;;4.32;3.88;;;22.00;63.90;;;;;;5003943;28;20053;-66
2023/06/25 05:11:43;;;;;;;5.40;4.90;;;22.00;63.90;;;;;;5004174;28;20358;-66
2023/06/25 05:14:09;;;;;;;4.85;4.38;;;22.00;64.10;;;;;;5000260;28;20030;-66
2023/06/25 05:16:34;;;;;;;4.82;4.20;;;22.00;64.10;;;;;;5002151;28;20049;-65
2023/06/25 05:19:00;;;;;;;4.53;4.13;;;22.00;64.20;;;;;;5002187;28;20121;-66
2023/06/25 05:21:25;;;;;;;5.55;4.53;;;22.00;64.30;;;;;;5002765;28;20029;-65
2023/06/25 05:23:59;;;;;;;5.07;4.43;;;22.00;64.30;;;;;;5000672;28;20041;-65
2023/06/25 05:26:25;;;;;;;4.93;4.43;;;22.00;64.30;;;;;;5003972;28;20383;-66
2023/06/25 05:28:50;;;;;;;4.10;3.70;;;22.00;64.30;;;;;;5004861;28;20469;-66
2023/06/25 05:31:15;;;;;;;4.15;3.75;;;22.00;64.30;;;;;;5004934;28;20448;-66
2023/06/25 05:33:41;;;;;;;4.78;4.35;;;22.00;64.30;;;;;;5003350;28;20496;-66
2023/06/25 05:36:06;;;;;;;4.40;3.92;;;22.10;64.50;;;;;;5002613;28;20068;-66
2023/06/25 05:38:32;;;;;;;4.20;3.80;;;22.10;64.30;;;;;;5004565;28;20500;-66
2023/06/25 05:40:57;;;;;;;4.78;4.38;;;22.10;64.40;;;;;;5002893;28;20022;-66
2023/06/25 05:43:23;;;;;;;5.63;4.40;;;22.10;64.50;;;;;;5002092;28;20521;-66
2023/06/25 05:45:48;;;;;;;4.95;4.35;;;22.10;64.20;;;;;;4998328;28;20026;-65
2023/06/25 05:48:14;;;;;;;5.00;4.05;;;22.10;63.60;;;;;;4999966;28;20033;-66
2023/06/25 05:50:39;;;;;;;4.60;4.10;;;22.10;63.30;;;;;;5001956;28;20029;-66
2023/06/25 05:53:05;;;;;;;6.25;4.22;;;22.10;63.60;;;;;;5003733;28;20178;-64
2023/06/25 05:55:30;;;;;;;4.53;4.13;;;22.10;63.70;;;;;;5001338;28;20022;-66
2023/06/25 05:57:56;;;;;;;4.32;3.90;;;22.10;64.20;;;;;;5002132;28;20428;-66
2023/06/25 06:00:23;;;;;;;5.68;4.57;;;22.10;63.60;;;;;;5002921;28;20504;-64
2023/06/25 06:02:48;;;;;;;5.70;5.15;;;22.10;63.40;;;;;;4999187;28;20038;-66
2023/06/25 06:05:14;;;;;;;5.63;4.50;;;22.10;63.90;;;;;;5001215;28;20096;-66
2023/06/25 06:07:39;;;;;;;4.63;4.10;;;22.10;64.00;;;;;;5002193;28;20622;-68
2023/06/25 06:10:05;;;;;;;5.72;4.40;;;22.20;63.90;;;;;;5003396;28;20038;-67
2023/06/25 06:12:31;;;;;;;5.85;4.57;;;22.10;64.10;;;;;;5001068;28;20045;-67
2023/06/25 06:14:56;;;;;;;5.32;3.80;;;22.20;63.50;;;;;;5004200;28;20085;-68
2023/06/25 06:17:22;;;;;;;5.50;4.35;;;22.20;63.60;;;;;;5002344;28;20369;-66
2023/06/25 06:19:47;;;;;;;6.15;4.70;;;22.20;63.80;;;;;;5003045;28;20124;-67
2023/06/25 06:22:14;;;;;;;5.15;4.65;;;22.20;64.10;;;;;;5002433;28;20493;-66
2023/06/25 06:24:39;;;;;;;6.53;5.38;;;22.20;64.20;;;;;;5002029;28;20130;-65
2023/06/25 06:27:06;;;;;;;5.40;4.72;;;22.20;64.00;;;;;;5003122;28;20128;-65
2023/06/25 06:29:31;;;;;;;7.32;5.10;;;22.20;64.00;;;;;;4998538;28;20045;-67
2023/06/25 06:31:57;;;;;;;4.43;4.03;;;22.20;64.10;;;;;;5001325;28;20018;-65
2023/06/25 06:34:22;;;;;;;5.70;4.35;;;22.20;64.00;;;;;;5002449;28;20076;-67
2023/06/25 06:36:48;;;;;;;5.15;4.70;;;22.20;63.80;;;;;;5000959;28;20030;-67
2023/06/25 06:39:15;;;;;;;6.35;5.50;;;22.20;63.90;;;;;;5000208;28;20037;-66
2023/06/25 06:41:40;;;;;;;6.05;4.78;;;22.20;63.90;;;;;;4998895;28;20027;-66
2023/06/25 06:44:11;;;;;;;6.30;5.18;;;22.20;63.90;;;;;;4999860;28;20026;-66
2023/06/25 06:46:37;;;;;;;6.85;6.05;;;22.20;64.10;;;;;;5001323;28;20062;-66
2023/06/25 06:49:02;;;;;;;5.78;5.28;;;22.20;63.00;;;;;;5003153;28;20056;-66
2023/06/25 06:51:28;;;;;;;6.82;5.22;;;22.20;62.20;;;;;;5002283;28;20034;-66
2023/06/25 06:53:53;;;;;;;6.40;5.80;;;22.20;62.60;;;;;;5003104;28;20582;-67
2023/06/25 06:56:19;;;;;;;5.55;4.95;;;22.30;63.00;;;;;;5001844;28;20038;-67
2023/06/25 06:58:44;;;;;;;8.10;5.80;;;22.20;63.10;;;;;;5000541;28;20030;-66
2023/06/25 07:01:10;;;;;;;6.88;4.75;;;22.20;62.10;;;;;;5002311;28;20456;-64
2023/06/25 07:03:35;;;;;;;7.55;4.95;;;22.20;62.50;;;;;;5000420;28;20029;-66
2023/06/25 07:06:00;;;;;;;6.53;5.22;;;22.20;61.30;;;;;;5001451;28;20068;-66
2023/06/25 07:08:26;;;;;;;7.72;5.57;;;22.20;60.70;;;;;;5007822;28;20040;-67
2023/06/25 07:10:51;;;;;;;7.18;6.03;;;22.20;60.20;;;;;;5005781;28;20038;-67
2023/06/25 07:13:17;;;;;;;8.90;5.50;;;22.20;59.70;;;;;;5000401;28;20022;-67
2023/06/25 07:15:42;;;;;;;6.68;5.70;;;22.20;59.90;;;;;;5004341;28;20037;-66
2023/06/25 07:18:08;;;;;;;5.82;5.13;;;22.20;60.50;;;;;;5003504;28;20038;-66
2023/06/25 07:20:33;;;;;;;6.40;5.22;;;22.20;60.70;;;;;;5001612;28;20491;-66
2023/06/25 07:22:59;;;;;;;6.45;5.30;;;22.20;60.80;;;;;;5004948;28;20049;-66
2023/06/25 07:25:24;;;;;;;5.05;4.65;;;22.20;60.80;;;;;;5004128;28;20041;-66
2023/06/25 07:27:50;;;;;;;6.22;5.63;;;22.20;61.20;;;;;;5003322;28;20113;-66
2023/06/25 07:30:15;;;;;;;5.80;5.30;;;22.20;61.00;;;;;;5001998;28;20034;-66
2023/06/25 07:32:41;;;;;;;6.45;5.78;;;22.20;60.50;;;;;;5005039;28;20057;-67
2023/06/25 07:35:07;;;;;;;6.03;5.43;;;22.20;59.90;;;;;;5005086;28;20437;-66
2023/06/25 07:37:32;;;;;;;6.70;6.10;;;22.20;60.20;;;;;;5011180;28;20041;-66
2023/06/25 07:39:58;;;;;;;6.15;5.60;;;22.20;60.50;;;;;;5014227;28;20401;-66
2023/06/25 07:42:23;;;;;;;7.32;6.28;;;22.20;58.90;;;;;;5010536;28;20436;-66
2023/06/25 07:44:49;;;;;;;6.18;5.57;;;22.10;59.40;;;;;;5010355;28;20040;-66
2023/06/25 07:47:14;;;;;;;7.00;5.88;;;22.20;59.40;;;;;;5011439;28;20393;-66
2023/06/25 07:49:40;;;;;;;8.80;5.85;;;22.20;60.20;;;;;;5011063;28;20034;-66
2023/06/25 07:52:05;;;;;;;8.73;5.75;;;22.10;59.90;;;;;;5002843;28;20022;-66
2023/06/25 07:54:31;;;;;;;7.82;5.53;;;22.20;60.00;;;;;;5008828;28;20049;-65
2023/06/25 07:56:56;;;;;;;7.63;5.18;;;22.20;59.50;;;;;;5008582;28;20468;-66
2023/06/25 07:59:22;;;;;;;7.53;5.85;;;22.20;59.20;;;;;;5002337;28;20032;-66
2023/06/25 08:01:47;;;;;;;6.53;5.93;;;22.10;59.50;;;;;;5004145;28;20062;-65
2023/06/25 08:04:13;;;;;;;7.65;5.75;;;22.10;58.60;;;;;;5011218;28;20037;-65
2023/06/25 08:06:38;;;;;;;7.35;5.38;;;22.20;59.30;;;;;;5001856;28;20491;-66
2023/06/25 08:09:04;;;;;;;6.80;5.97;;;22.10;58.70;;;;;;5005587;28;20389;-66
2023/06/25 08:11:30;;;;;;;6.57;5.53;;;22.10;59.00;;;;;;5004406;28;20033;-66
2023/06/25 08:13:55;;;;;;;6.20;5.53;;;22.10;59.00;;;;;;5005185;28;20717;-66
2023/06/25 08:16:22;;;;;;;5.90;5.28;;;22.10;59.20;;;;;;5004185;28;20038;-66
2023/06/25 08:18:48;;;;;;;7.22;5.00;;;22.10;59.20;;;;;;5003731;28;20036;-66
2023/06/25 08:21:14;;;;;;;6.13;5.30;;;22.10;58.90;;;;;;5003953;28;20034;-66
2023/06/25 08:23:39;;;;;;;5.70;5.20;;;22.10;59.10;;;;;;5005109;28;20411;-67
2023/06/25 08:26:05;;;;;;;6.78;5.55;;;22.10;59.30;;;;;;5002902;28;20056;-67
2023/06/25 08:28:30;;;;;;;6.10;5.50;;;22.10;59.60;;;;;;5003177;28;20026;-67
2023/06/25 08:30:56;;;;;;;6.13;5.53;;;22.10;58.80;;;;;;5002710;28;20096;-66
2023/06/25 08:33:21;;;;;;;6.38;5.30;;;22.10;59.00;;;;;;5002397;28;20521;-66
2023/06/25 08:35:46;;;;;;;6.18;5.18;;;22.10;59.00;;;;;;4998535;28;20405;-67
2023/06/25 08:38:17;;;;;;;5.63;5.13;;;22.10;59.30;;;;;;5002626;28;20045;-65
2023/06/25 08:40:45;;;;;;;5.18;4.70;;;22.10;59.40;;;;;;5001730;28;20034;-67
2023/06/25 08:43:11;;;;;;;6.07;4.78;;;22.10;59.60;;;;;;5004990;28;20032;-67
2023/06/25 08:45:36;;;;;;;6.28;5.32;;;22.10;59.20;;;;;;5003487;28;20025;-67
2023/06/25 08:48:04;;;;;;;5.70;5.20;;;22.10;59.20;;;;;;5004032;28;20500;-66
2023/06/25 08:50:30;;;;;;;6.57;5.82;;;22.10;58.20;;;;;;5001756;28;20049;-67
2023/06/25 08:52:56;;;;;;;6.05;5.45;;;22.10;58.60;;;;;;5004666;28;20462;-67
2023/06/25 08:55:24;;;;;;;6.80;5.15;;;22.10;59.00;;;;;;5001221;28;20080;-66
2023/06/25 08:57:49;;;;;;;9.95;5.70;;;22.00;59.00;;;;;;4998136;28;20398;-66
2023/06/25 09:00:16;;;;;;;5.82;5.28;;;22.10;58.50;;;;;;5001359;28;20032;-66
2023/06/25 09:02:42;;;;;;;5.95;4.80;;;22.10;58.10;;;;;;4999164;28;20029;-67
2023/06/25 09:05:12;;;;;;;7.10;5.22;;;22.10;58.40;;;;;;4996675;28;20034;-67
2023/06/25 09:07:45;;;;;;;7.57;5.75;;;22.10;58.00;;;;;;5001016;28;20397;-67
2023/06/25 09:10:10;;;;;;;7.20;5.40;;;22.00;58.60;;;;;;5004362;28;20524;-65
2023/06/25 09:12:36;;;;;;;6.40;4.75;;;22.00;58.10;;;;;;5002485;28;20041;-66
2023/06/25 09:15:02;;;;;;;5.35;4.85;;;22.00;58.10;;;;;;5003931;28;20164;-67
2023/06/25 09:17:28;;;;;;;7.15;5.63;;;22.00;58.20;;;;;;5003324;28;20463;-64
2023/06/25 09:19:53;;;;;;;8.00;5.75;;;22.00;58.50;;;;;;5003637;28;20036;-66
2023/06/25 09:22:19;;;;;;;6.28;5.07;;;22.00;58.80;;;;;;5003419;28;20536;-66
2023/06/25 09:24:47;;;;;;;6.32;5.38;;;22.00;58.30;;;;;;4999774;28;20023;-66
2023/06/25 09:27:13;;;;;;;7.18;4.85;;;22.00;58.40;;;;;;5000746;28;20030;-67
2023/06/25 09:29:39;;;;;;;7.13;5.47;;;22.10;58.40;;;;;;5002533;28;20028;-67
2023/06/25 09:32:08;;;;;;;6.10;5.43;;;22.10;58.60;;;;;;5000834;28;20030;-67
2023/06/25 09:34:34;;;;;;;5.72;5.00;;;22.10;59.20;;;;;;5002028;28;20030;-66
2023/06/25 09:37:02;;;;;;;7.40;5.65;;;22.10;59.00;;;;;;5003948;28;20025;-67
2023/06/25 09:39:27;;;;;;;6.68;5.65;;;22.10;59.00;;;;;;5001111;28;20049;-65
2023/06/25 09:41:53;;;;;;;6.05;4.95;;;22.10;58.50;;;;;;5002461;28;20472;-67
2023/06/25 09:44:21;;;;;;;6.38;5.22;;;22.10;58.70;;;;;;5003186;28;20092;-66
2023/06/25 09:46:48;;;;;;;6.45;5.65;;;22.10;59.10;;;;;;5003748;28;20037;-66
2023/06/25 09:49:17;;;;;;;5.68;5.05;;;22.10;59.10;;;;;;5001780;28;20026;-67
2023/06/25 09:51:51;;;;;;;6.50;5.65;;;22.10;58.80;;;;;;5000271;28;20385;-66
2023/06/25 09:54:21;;;;;;;7.10;5.03;;;22.10;59.00;;;;;;5001817;28;20042;-66
2023/06/25 09:56:48;;;;;;;7.68;4.75;;;22.10;59.20;;;;;;5003537;28;20036;-66
2023/06/25 09:59:14;;;;;;;5.57;5.05;;;22.10;59.40;;;;;;5002726;28;20029;-67
2023/06/25 10:01:39;;;;;;;5.85;5.20;;;22.10;59.00;;;;;;5000897;28;20026;-66
2023/06/25 10:04:05;;;;;;;5.40;4.78;;;22.10;58.70;;;;;;5003804;28;20030;-67
2023/06/25 10:06:32;;;;;;;6.15;5.55;;;22.10;58.80;;;;;;5000833;28;20029;-67
2023/06/25 10:08:57;;;;;;;5.28;4.70;;;22.10;59.00;;;;;;5003651;28;20037;-67
2023/06/25 10:11:23;;;;;;;5.80;5.07;;;22.10;58.80;;;;;;5002577;28;20374;-66
2023/06/25 10:13:51;;;;;;;4.55;4.15;;;22.10;59.10;;;;;;5003878;28;20129;-67
2023/06/25 10:16:21;;;;;;;7.07;5.45;;;22.10;59.40;;;;;;4999979;28;20102;-67
2023/06/25 10:18:47;;;;;;;6.05;5.05;;;22.10;59.30;;;;;;5002425;28;20535;-66
2023/06/25 10:21:23;;;;;;;6.03;5.43;;;22.20;58.90;;;;;;5004264;28;20054;-66
2023/06/25 10:23:59;;;;;;;7.72;5.85;;;22.20;59.20;;;;;;5003707;28;20041;-67
2023/06/25 10:26:49;;;;;;;6.28;5.45;;;22.20;59.50;;;;;;5004821;28;20030;-66
2023/06/25 10:29:14;;;;;;;7.15;5.60;;;22.10;59.50;;;;;;5006193;28;20037;-66
2023/06/25 10:31:44;;;;;;;5.88;5.32;;;22.10;59.70;;;;;;5002836;28;20033;-66
2023/06/25 10:34:10;;;;;;;9.85;5.75;;;22.20;59.60;;;;;;5002843;28;20107;-67
2023/06/25 10:36:36;;;;;;;5.75;4.95;;;22.20;59.50;;;;;;5002182;28;20484;-66
2023/06/25 10:39:03;;;;;;;6.00;5.25;;;22.10;60.00;;;;;;5003418;28;20030;-66
2023/06/25 10:41:30;;;;;;;6.60;5.45;;;22.20;59.40;;;;;;5005366;28;20026;-66
2023/06/25 10:43:57;;;;;;;6.05;4.82;;;22.20;59.30;;;;;;5007541;28;20408;-66
2023/06/25 10:46:32;;;;;;;5.78;5.18;;;22.20;58.80;;;;;;5003211;28;20060;-66
2023/06/25 10:49:02;;;;;;;5.85;4.72;;;22.20;59.00;;;;;;5006371;28;20089;-66
2023/06/25 10:51:29;;;;;;;6.88;4.70;;;22.30;59.50;;;;;;5004873;28;20500;-65
2023/06/25 10:53:55;;;;;;;5.97;4.05;;;22.30;59.30;;;;;;5006153;28;20038;-67
2023/06/25 10:56:23;;;;;;;5.68;4.60;;;22.30;59.10;;;;;;5005363;28;20048;-67
2023/06/25 10:58:56;;;;;;;6.25;4.97;;;22.30;58.90;;;;;;5005652;28;20252;-66
2023/06/25 11:01:22;;;;;;;6.22;4.90;;;22.20;59.10;;;;;;5005308;28;20431;-67
2023/06/25 11:03:48;;;;;;;6.70;5.47;;;22.30;59.20;;;;;;5004648;28;20041;-66
2023/06/25 11:06:13;;;;;;;5.70;5.07;;;22.20;59.10;;;;;;5005954;28;20022;-67
2023/06/25 11:08:41;;;;;;;6.20;4.63;;;22.30;59.30;;;;;;5006274;28;20106;-67
2023/06/25 11:11:07;;;;;;;5.53;5.03;;;22.20;59.00;;;;;;5006327;28;20041;-66
2023/06/25 11:13:32;;;;;;;5.20;4.70;;;22.30;59.30;;;;;;5006233;28;20760;-66
2023/06/25 11:15:58;;;;;;;5.47;4.72;;;22.30;59.30;;;;;;5005821;28;20209;-65
2023/06/25 11:18:23;;;;;;;9.00;4.72;;;22.30;59.20;;;;;;5004322;28;20034;-65
2023/06/25 11:20:49;;;;;;;5.35;4.32;;;22.20;59.10;;;;;;5005128;28;20034;-65
2023/06/25 11:23:15;;;;;;;5.45;4.95;;;22.30;59.20;;;;;;5005927;28;20069;-66
2023/06/25 11:25:41;;;;;;;4.85;4.35;;;22.30;58.70;;;;;;5005041;28;20452;-67
2023/06/25 11:28:11;;;;;;;6.28;5.07;;;22.30;58.80;;;;;;5004374;28;20201;-67
2023/06/25 11:30:37;;;;;;;5.05;4.50;;;22.30;59.00;;;;;;5002860;28;20574;-67
2023/06/25 11:33:10;;;;;;;5.13;4.50;;;22.30;59.20;;;;;;5003980;28;20030;-67
2023/06/25 11:35:36;;;;;;;5.88;4.15;;;22.30;59.50;;;;;;5002632;28;20034;-66
2023/06/25 11:38:01;;;;;;;5.53;4.45;;;22.30;59.60;;;;;;5004760;28;20053;-66
2023/06/25 11:40:29;;;;;;;9.00;5.32;;;22.30;59.60;;;;;;5006351;28;20377;-65
2023/06/25 11:42:55;;;;;;;5.25;4.75;;;22.40;59.40;;;;;;5005405;28;20203;-66
2023/06/25 11:45:22;;;;;;;4.85;4.30;;;22.40;59.00;;;;;;5004103;28;20336;-66
2023/06/25 11:47:53;;;;;;;5.90;4.60;;;22.40;59.20;;;;;;5005627;28;20094;-67
2023/06/25 11:50:22;;;;;;;5.70;4.07;;;22.40;59.30;;;;;;5004950;28;20079;-65
2023/06/25 11:52:48;;;;;;;5.07;4.38;;;22.40;59.50;;;;;;5002847;28;20026;-65
2023/06/25 11:55:14;;;;;;;4.75;4.35;;;22.40;59.10;;;;;;5004940;28;20029;-67
2023/06/25 11:57:40;;;;;;;5.47;4.45;;;22.40;59.10;;;;;;5000687;28;20091;-67
2023/06/25 12:00:07;;;;;;;6.15;4.82;;;22.40;58.80;;;;;;5003703;28;20026;-66
2023/06/25 12:02:33;;;;;;;5.95;4.90;;;22.40;58.90;;;;;;5002990;28;20611;-67
2023/06/25 12:04:58;;;;;;;4.72;4.20;;;22.40;59.10;;;;;;5004752;28;20034;-66
2023/06/25 12:07:24;;;;;;;5.65;5.13;;;22.40;59.40;;;;;;5002586;28;20374;-66
2023/06/25 12:09:49;;;;;;;4.88;4.28;;;22.50;58.70;;;;;;5004983;28;20042;-66
2023/06/25 12:12:15;;;;;;;5.47;4.10;;;22.50;58.50;;;;;;5005887;28;20040;-65
2023/06/25 12:14:41;;;;;;;6.78;4.20;;;22.50;59.00;;;;;;5003713;28;20405;-65
2023/06/25 12:17:06;;;;;;;5.20;4.40;;;22.50;59.20;;;;;;4999886;28;20032;-66
2023/06/25 12:19:32;;;;;;;5.63;4.55;;;22.50;59.50;;;;;;5002906;28;20041;-66
2023/06/25 12:21:58;;;;;;;4.75;4.25;;;22.50;59.70;;;;;;5005756;28;20034;-66
2023/06/25 12:24:24;;;;;;;6.05;4.57;;;22.50;59.90;;;;;;5003298;28;20027;-66
2023/06/25 12:26:50;;;;;;;5.38;4.22;;;22.50;60.10;;;;;;5004165;28;20030;-66
2023/06/25 12:29:15;;;;;;;4.75;3.92;;;22.50;60.30;;;;;;5004671;28;20531;-66
2023/06/25 12:31:40;;;;;;;4.07;3.67;;;22.50;60.50;;;;;;5002894;28;20030;-66
2023/06/25 12:34:06;;;;;;;4.38;3.97;;;22.50;60.50;;;;;;5003700;28;20030;-65
2023/06/25 12:36:32;;;;;;;5.78;4.57;;;22.50;60.40;;;;;;5003918;28;20049;-65
2023/06/25 12:39:00;;;;;;;5.05;4.00;;;22.60;60.10;;;;;;5005818;28;20030;-66
2023/06/25 12:41:25;;;;;;;6.13;4.43;;;22.60;59.80;;;;;;5004986;28;20029;-65
2023/06/25 12:43:51;;;;;;;5.78;3.90;;;22.60;59.50;;;;;;5005592;28;20042;-66